AYPY/POM METAR and TAF weather

Enter ICAO airport designator
Station Type Date Time Source
AYPY METAR 2024/04/18 07:00 UTC NOAA

AYPY 180700Z 18006KT 5000M SHRA SCT015 BKN025 OVC050 26/25 Q1007=


Station Type Date Time Source
AYPY Decoded METAR 2024/04/18 07:00 UTC NOAA

Moresby, Papua New Guinea (AYPY) 09-26S 147-13E 49M
Apr 18, 2024 - 03:00 AM EDT / 2024.04.18 0700 UTC
Wind: from the S (180 degrees) at 7 MPH (6 KT):0
Sky conditions: overcast
Weather: rain showers
Temperature: 78 F (26 C)
Dew Point: 77 F (25 C)
Relative Humidity: 94%
Pressure (altimeter): 29.74 in. Hg (1007 hPa)
ob: AYPY 180700Z 18006KT 5000M SHRA SCT015 BKN025 OVC050 26/25 Q1007=
cycle: 7

Station Type Date Time Source
AYPY TAF 2024/04/18 18:33 UTC NOAA